^^
Daily Summary for February 24, 2021 Units:  Metric    English   Both
Daily Weekly Monthly Yearly Custom
  High: Low: Average:
Temperature: 18.9 °C 2.8 °C 9.8 °C
Dew Point: 0.6 °C -12.8 °C -4.7 °C
Humidity: 64% 11% 40%
Wind Speed: 32.2km/h 0km/h 5.8km/h
Wind Gust: 32.2km/h - -
Wind- - SSE
Pressure: 1026 hPa 1022.6 hPa -
Precipitation: 0 mm    
Historical Graphs
 
 
Tabular Data for February 24, 2021
Time Temperature Dew Point Pressure Wind Wind Speed Wind Gust Humidity Rainfall Rate (Hourly) solar
00:04 6.7 °C -1.1 °C 1022.6 hPa Calm     58% 0 mm 0.00 W/m2
00:09 6.1 °C -1.1 °C 1022.6 hPa Calm     60% 0 mm 0.00 W/m2
00:14 6.1 °C -1.1 °C 1022.6 hPa Calm     60% 0 mm 0.00 W/m2
00:19 6.1 °C -1.1 °C 1022.6 hPa Calm     59% 0 mm 0.00 W/m2
00:24 6.1 °C -1.7 °C 1022.6 hPa Calm     59% 0 mm 0.00 W/m2
00:29 5.6 °C -1.7 °C 1022.6 hPa Calm     58% 0 mm 0.00 W/m2
00:34 5.6 °C -1.7 °C 1022.6 hPa Calm     59% 0 mm 0.00 W/m2
00:39 5.6 °C -1.1 °C 1022.6 hPa Calm     63% 0 mm 0.00 W/m2
00:44 5.6 °C -1.1 °C 1022.6 hPa Calm     63% 0 mm 0.00 W/m2
00:49 5.6 °C -1.1 °C 1022.6 hPa Calm     63% 0 mm 0.00 W/m2
00:54 5.6 °C -1.7 °C 1022.6 hPa SW 9.7 km/h 3.2 km/h 60% 0 mm 0.00 W/m2
00:59 5.6 °C -2.2 °C 1022.6 hPa Calm   9.7 km/h 58% 0 mm 0.00 W/m2
01:04 5.6 °C -2.2 °C 1022.6 hPa Calm     59% 0 mm 0.00 W/m2
01:09 5 °C -2.2 °C 1022.6 hPa Calm     59% 0 mm 0.00 W/m2
01:14 5 °C -2.8 °C 1022.6 hPa Calm     57% 0 mm 0.00 W/m2
01:19 5 °C -2.8 °C 1022.6 hPa Calm     56% 0 mm 0.00 W/m2
01:24 5 °C -2.8 °C 1022.6 hPa Calm     56% 0 mm 0.00 W/m2
01:29 5 °C -2.8 °C 1022.6 hPa Calm     56% 0 mm 0.00 W/m2
01:34 5 °C -2.8 °C 1022.6 hPa Calm     56% 0 mm 0.00 W/m2
01:39 5 °C -2.8 °C 1022.6 hPa Calm     56% 0 mm 0.00 W/m2
01:44 5 °C -2.8 °C 1022.6 hPa Calm     57% 0 mm 0.00 W/m2
01:49 5 °C -2.8 °C 1022.6 hPa Calm     57% 0 mm 0.00 W/m2
01:54 5 °C -3.3 °C 1022.6 hPa Calm     56% 0 mm 0.00 W/m2
01:59 5 °C -2.8 °C 1022.6 hPa Calm     57% 0 mm 0.00 W/m2
02:04 5 °C -2.8 °C 1022.6 hPa Calm     57% 0 mm 0.00 W/m2
02:09 5 °C -2.8 °C 1022.6 hPa Calm     57% 0 mm 0.00 W/m2
02:14 5 °C -2.8 °C 1022.6 hPa Calm     57% 0 mm 0.00 W/m2
02:19 5 °C -3.3 °C 1022.6 hPa Calm     56% 0 mm 0.00 W/m2
02:24 5 °C -3.3 °C 1022.6 hPa WNW 6.4 km/h 1.6 km/h 55% 0 mm 0.00 W/m2
02:29 5 °C -3.9 °C 1022.6 hPa Calm   4.8 km/h 53% 0 mm 0.00 W/m2
02:34 5 °C -3.3 °C 1022.6 hPa Calm     55% 0 mm 0.00 W/m2
02:39 5 °C -3.3 °C 1022.6 hPa WNW 3.2 km/h   55% 0 mm 0.00 W/m2
02:44 5 °C -3.9 °C 1022.6 hPa Calm   3.2 km/h 54% 0 mm 0.00 W/m2
02:49 4.4 °C -3.3 °C 1022.6 hPa Calm     55% 0 mm 0.00 W/m2
02:54 4.4 °C -3.3 °C 1022.6 hPa Calm     55% 0 mm 0.00 W/m2
02:59 4.4 °C -3.3 °C 1022.6 hPa Calm     55% 0 mm 0.00 W/m2
03:04 4.4 °C -3.9 °C 1022.6 hPa Calm     54% 0 mm 0.00 W/m2
03:09 4.4 °C -3.9 °C 1022.6 hPa WSW 6.4 km/h 1.6 km/h 54% 0 mm 0.00 W/m2
03:14 4.4 °C -3.9 °C 1022.6 hPa Calm   4.8 km/h 53% 0 mm 0.00 W/m2
03:19 4.4 °C -3.9 °C 1022.6 hPa Calm     53% 0 mm 0.00 W/m2
03:24 4.4 °C -3.9 °C 1022.6 hPa Calm     55% 0 mm 0.00 W/m2
03:29 4.4 °C -3.9 °C 1022.6 hPa Calm     55% 0 mm 0.00 W/m2
03:34 4.4 °C -3.9 °C 1022.6 hPa Calm     54% 0 mm 0.00 W/m2
03:39 4.4 °C -3.9 °C 1022.6 hPa Calm     55% 0 mm 0.00 W/m2
03:44 4.4 °C -3.9 °C 1022.6 hPa Calm     55% 0 mm 0.00 W/m2
03:49 4.4 °C -3.3 °C 1022.6 hPa Calm     56% 0 mm 0.00 W/m2
03:54 4.4 °C -3.9 °C 1022.6 hPa Calm     55% 0 mm 0.00 W/m2
03:59 4.4 °C -3.9 °C 1022.6 hPa WSW 3.2 km/h   55% 0 mm 0.00 W/m2
04:04 4.4 °C -3.9 °C 1022.6 hPa WSW 3.2 km/h 3.2 km/h 55% 0 mm 0.00 W/m2
04:09 3.9 °C -3.9 °C 1022.6 hPa Calm     57% 0 mm 0.00 W/m2
04:14 3.9 °C -3.9 °C 1022.6 hPa Calm     57% 0 mm 0.00 W/m2
04:19 3.9 °C -3.9 °C 1022.6 hPa Calm     57% 0 mm 0.00 W/m2
04:24 3.9 °C -3.9 °C 1022.6 hPa Calm     57% 0 mm 0.00 W/m2
04:29 3.9 °C -3.9 °C 1022.6 hPa Calm     57% 0 mm 0.00 W/m2
04:34 3.9 °C -3.9 °C 1022.6 hPa Calm     57% 0 mm 0.00 W/m2
04:39 3.9 °C -4.4 °C 1022.6 hPa Calm     56% 0 mm 0.00 W/m2
04:44 3.9 °C -4.4 °C 1022.6 hPa Calm     56% 0 mm 0.00 W/m2
04:49 3.9 °C -4.4 °C 1022.6 hPa Calm     56% 0 mm 0.00 W/m2
04:54 3.9 °C -4.4 °C 1022.6 hPa Calm     56% 0 mm 0.00 W/m2
05:04 3.9 °C -4.4 °C 1022.6 hPa Calm     55% 0 mm 0.00 W/m2
05:09 3.9 °C -4.4 °C 1022.6 hPa WSW 3.2 km/h   55% 0 mm 0.00 W/m2
05:14 3.9 °C -5 °C 1022.6 hPa Calm   3.2 km/h 54% 0 mm 0.00 W/m2
05:19 3.9 °C -4.4 °C 1022.6 hPa Calm     54% 0 mm 0.00 W/m2
05:24 3.9 °C -4.4 °C 1022.6 hPa Calm     55% 0 mm 0.00 W/m2
05:29 3.9 °C -4.4 °C 1022.6 hPa Calm     55% 0 mm 0.00 W/m2
05:34 3.9 °C -4.4 °C 1022.6 hPa Calm     54% 0 mm 0.00 W/m2
05:39 3.9 °C -4.4 °C 1022.6 hPa Calm     55% 0 mm 0.00 W/m2
05:44 3.9 °C -4.4 °C 1022.6 hPa Calm     55% 0 mm 0.00 W/m2
05:49 3.9 °C -4.4 °C 1022.6 hPa Calm     55% 0 mm 0.00 W/m2
05:54 3.9 °C -4.4 °C 1022.6 hPa Calm     55% 0 mm 0.00 W/m2
05:59 3.9 °C -4.4 °C 1022.6 hPa Calm     55% 0 mm 0.00 W/m2
06:04 3.9 °C -4.4 °C 1022.6 hPa WSW 6.4 km/h   55% 0 mm 0.00 W/m2
06:09 3.9 °C -4.4 °C 1026 hPa West 3.2 km/h 4.8 km/h 54% 0 mm 0.00 W/m2
06:14 3.9 °C -4.4 °C 1026 hPa Calm     55% 0 mm 0.00 W/m2
06:19 3.9 °C -4.4 °C 1026 hPa Calm     55% 0 mm 0.00 W/m2
06:24 3.9 °C -4.4 °C 1026 hPa Calm     55% 0 mm 0.00 W/m2
06:29 3.9 °C -4.4 °C 1026 hPa Calm     54% 0 mm 0.00 W/m2
06:34 3.9 °C -4.4 °C 1026 hPa Calm     55% 0 mm 0.00 W/m2
06:39 3.9 °C -4.4 °C 1026 hPa Calm     55% 0 mm 0.00 W/m2
06:44 3.9 °C -4.4 °C 1026 hPa Calm     56% 0 mm 0.00 W/m2
06:49 3.9 °C -4.4 °C 1026 hPa Calm     56% 0 mm 5.00 W/m2
06:54 3.9 °C -4.4 °C 1026 hPa Calm     56% 0 mm 7.00 W/m2
06:59 3.9 °C -4.4 °C 1026 hPa Calm     56% 0 mm 9.00 W/m2
07:04 3.9 °C -4.4 °C 1026 hPa Calm     56% 0 mm 11.00 W/m2
07:09 3.9 °C -4.4 °C 1026 hPa Calm     56% 0 mm 12.00 W/m2
07:14 3.3 °C -4.4 °C 1026 hPa Calm     56% 0 mm 14.00 W/m2
07:19 3.3 °C -3.9 °C 1026 hPa Calm     58% 0 mm 16.00 W/m2
07:23 3.3 °C -3.9 °C 1026 hPa Calm     59% 0 mm 18.00 W/m2
07:29 3.3 °C -3.9 °C 1026 hPa Calm     59% 0 mm 19.00 W/m2
07:34 3.3 °C -3.9 °C 1026 hPa Calm     59% 0 mm 21.00 W/m2
07:39 3.3 °C -3.9 °C 1026 hPa Calm     59% 0 mm 25.00 W/m2
07:44 3.3 °C -3.3 °C 1026 hPa Calm     60% 0 mm 35.00 W/m2
07:49 3.9 °C -3.3 °C 1026 hPa Calm     60% 0 mm 33.00 W/m2
07:54 3.9 °C -3.3 °C 1026 hPa Calm     61% 0 mm 26.00 W/m2
07:59 3.9 °C -3.3 °C 1026 hPa Calm     61% 0 mm 28.00 W/m2
08:04 3.9 °C -2.8 °C 1026 hPa Calm     61% 0 mm 30.00 W/m2
08:09 3.9 °C -2.8 °C 1026 hPa Calm     61% 0 mm 32.00 W/m2
08:14 4.4 °C -2.2 °C 1026 hPa Calm     63% 0 mm 32.00 W/m2
08:19 4.4 °C -1.7 °C 1026 hPa Calm     64% 0 mm 33.00 W/m2
08:24 4.4 °C -2.2 °C 1026 hPa Calm     63% 0 mm 77.00 W/m2
08:29 5 °C -1.7 °C 1026 hPa Calm     62% 0 mm 387.00 W/m2
08:34 5 °C -1.7 °C 1026 hPa Calm     62% 0 mm 378.00 W/m2
08:39 5.6 °C -1.7 °C 1026 hPa NW 3.2 km/h   61% 0 mm 408.00 W/m2
08:44 6.1 °C -2.2 °C 1026 hPa Calm   3.2 km/h 56% 0 mm 436.00 W/m2
08:49 6.1 °C -2.2 °C 1026 hPa Calm     55% 0 mm 455.00 W/m2
08:54 6.7 °C -2.8 °C 1026 hPa Calm     53% 0 mm 471.00 W/m2
08:59 7.2 °C -2.8 °C 1026 hPa Calm     50% 0 mm 471.00 W/m2
09:04 7.8 °C -2.8 °C 1026 hPa WNW 3.2 km/h   48% 0 mm 406.00 W/m2
09:09 7.8 °C -3.3 °C 1026 hPa Calm   3.2 km/h 46% 0 mm 464.00 W/m2
09:14 8.9 °C -2.8 °C 1026 hPa WSW 3.2 km/h   45% 0 mm 531.00 W/m2
09:19 8.9 °C -2.8 °C 1026 hPa SW 3.2 km/h 3.2 km/h 43% 0 mm 541.00 W/m2
09:24 9.4 °C -3.3 °C 1026 hPa Calm   3.2 km/h 41% 0 mm 557.00 W/m2
09:29 10 °C -3.3 °C 1026 hPa Calm     40% 0 mm 570.00 W/m2
09:34 10.6 °C -4.4 °C 1026 hPa SSW 3.2 km/h   36% 0 mm 584.00 W/m2
09:39 11.1 °C -4.4 °C 1026 hPa ESE 3.2 km/h 3.2 km/h 34% 0 mm 594.00 W/m2
09:44 11.7 °C -3.9 °C 1026 hPa ESE 6.4 km/h 3.2 km/h 33% 0 mm 608.00 W/m2
09:49 12.2 °C -4.4 °C 1026 hPa ESE 3.2 km/h 4.8 km/h 32% 0 mm 621.00 W/m2
09:54 12.2 °C -3.3 °C 1026 hPa ESE 9.7 km/h 3.2 km/h 33% 0 mm 631.00 W/m2
09:59 12.8 °C -4.4 °C 1026 hPa ESE 3.2 km/h 9.7 km/h 31% 0 mm 642.00 W/m2
10:04 13.3 °C -3.9 °C 1026 hPa SSE 3.2 km/h 3.2 km/h 30% 0 mm 652.00 W/m2
10:09 13.3 °C -4.4 °C 1026 hPa ESE 6.4 km/h 3.2 km/h 29% 0 mm 664.00 W/m2
10:14 13.9 °C -5.6 °C 1026 hPa East 3.2 km/h 4.8 km/h 26% 0 mm 670.00 W/m2
10:19 14.4 °C -4.4 °C 1026 hPa ESE 6.4 km/h 3.2 km/h 27% 0 mm 682.00 W/m2
10:24 14.4 °C -5 °C 1026 hPa ESE 11.3 km/h 4.8 km/h 26% 0 mm 691.00 W/m2
10:28 14.4 °C -5.6 °C 1026 hPa East 6.4 km/h 11.3 km/h 25% 0 mm 696.00 W/m2
10:34 14.4 °C -4.4 °C 1026 hPa South 3.2 km/h 4.8 km/h 26% 0 mm 703.00 W/m2
10:39 15 °C -4.4 °C 1026 hPa ESE 9.7 km/h 3.2 km/h 26% 0 mm 712.00 W/m2
10:44 15 °C -4.4 °C 1026 hPa SE 9.7 km/h 9.7 km/h 26% 0 mm 717.00 W/m2
10:49 15 °C -5 °C 1026 hPa ESE 9.7 km/h 9.7 km/h 25% 0 mm 726.00 W/m2
10:54 15.6 °C -4.4 °C 1026 hPa SE 6.4 km/h 9.7 km/h 25% 0 mm 729.00 W/m2
10:59 15.6 °C -4.4 °C 1026 hPa ESE 9.7 km/h 3.2 km/h 25% 0 mm 737.00 W/m2
11:04 15.6 °C -4.4 °C 1026 hPa SE 9.7 km/h 9.7 km/h 25% 0 mm 744.00 W/m2
11:09 15.6 °C -3.9 °C 1026 hPa SE 11.3 km/h 9.7 km/h 26% 0 mm 745.00 W/m2
11:14 15.6 °C -4.4 °C 1026 hPa East 11.3 km/h 11.3 km/h 25% 0 mm 751.00 W/m2
11:19 16.1 °C -5 °C 1026 hPa SE 20.9 km/h 12.9 km/h 23% 0 mm 754.00 W/m2
11:24 16.1 °C -4.4 °C 1026 hPa SSE 14.5 km/h 20.9 km/h 24% 0 mm 756.00 W/m2
11:29 16.1 °C -4.4 °C 1026 hPa SSE 14.5 km/h 14.5 km/h 24% 0 mm 761.00 W/m2
11:34 16.7 °C -4.4 °C 1026 hPa SSE 6.4 km/h 11.3 km/h 23% 0 mm 763.00 W/m2
11:39 16.7 °C -4.4 °C 1026 hPa ESE 14.5 km/h 6.4 km/h 23% 0 mm 765.00 W/m2
11:44 16.7 °C -2.2 °C 1026 hPa SSE 9.7 km/h 14.5 km/h 27% 0 mm 765.00 W/m2
11:49 17.2 °C -0.6 °C 1026 hPa SE 6.4 km/h 9.7 km/h 31% 0 mm 768.00 W/m2
11:54 17.2 °C -0.6 °C 1026 hPa East 17.7 km/h 12.9 km/h 31% 0 mm 770.00 W/m2
11:59 17.2 °C -0.6 °C 1026 hPa SE 11.3 km/h 16.1 km/h 30% 0 mm 768.00 W/m2
12:04 17.2 °C -1.1 °C 1026 hPa ESE 17.7 km/h 11.3 km/h 29% 0 mm 766.00 W/m2
12:09 17.2 °C -0.6 °C 1026 hPa East 9.7 km/h 16.1 km/h 30% 0 mm 765.00 W/m2
12:14 17.2 °C 0.6 °C 1026 hPa ESE 9.7 km/h 4.8 km/h 32% 0 mm 765.00 W/m2
12:18 17.2 °C 0.6 °C 1026 hPa SE 9.7 km/h 9.7 km/h 32% 0 mm 765.00 W/m2
12:24 17.2 °C 0.6 °C 1026 hPa ENE 17.7 km/h 11.3 km/h 32% 0 mm 759.00 W/m2
12:29 17.2 °C 0 °C 1026 hPa ENE 11.3 km/h 16.1 km/h 31% 0 mm 758.00 W/m2
12:34 17.2 °C 0 °C 1026 hPa ESE 17.7 km/h 11.3 km/h 31% 0 mm 752.00 W/m2
12:39 17.2 °C -0.6 °C 1026 hPa SE 16.1 km/h 16.1 km/h 30% 0 mm 749.00 W/m2
12:44 17.2 °C -0.6 °C 1022.6 hPa SSE 14.5 km/h 9.7 km/h 30% 0 mm 747.00 W/m2
12:49 17.2 °C 0.6 °C 1022.6 hPa SSE 9.7 km/h 14.5 km/h 32% 0 mm 744.00 W/m2
12:54 17.2 °C -0.6 °C 1022.6 hPa ESE 17.7 km/h 9.7 km/h 30% 0 mm 742.00 W/m2
12:59 17.2 °C -1.1 °C 1022.6 hPa ESE 19.3 km/h 16.1 km/h 28% 0 mm 737.00 W/m2
13:04 17.2 °C -0.6 °C 1022.6 hPa East 20.9 km/h 20.9 km/h 29% 0 mm 729.00 W/m2
13:09 17.8 °C 0 °C 1022.6 hPa East 11.3 km/h 9.7 km/h 30% 0 mm 722.00 W/m2
13:14 17.8 °C -0.6 °C 1022.6 hPa East 19.3 km/h 11.3 km/h 29% 0 mm 715.00 W/m2
13:19 17.8 °C -0.6 °C 1022.6 hPa SE 20.9 km/h 20.9 km/h 29% 0 mm 714.00 W/m2
13:24 17.8 °C 0 °C 1022.6 hPa ESE 11.3 km/h 14.5 km/h 30% 0 mm 705.00 W/m2
13:29 17.8 °C -1.1 °C 1022.6 hPa SE 25.7 km/h 14.5 km/h 28% 0 mm 696.00 W/m2
13:34 17.8 °C -1.1 °C 1022.6 hPa WSW 19.3 km/h 25.7 km/h 28% 0 mm 687.00 W/m2
13:39 17.8 °C -0.6 °C 1022.6 hPa South 20.9 km/h 20.9 km/h 28% 0 mm 679.00 W/m2
13:44 18.3 °C -0.6 °C 1022.6 hPa WNW 9.7 km/h 14.5 km/h 28% 0 mm 668.00 W/m2
13:49 18.3 °C -0.6 °C 1022.6 hPa East 11.3 km/h 9.7 km/h 28% 0 mm 661.00 W/m2
13:54 18.3 °C -1.1 °C 1022.6 hPa ESE 14.5 km/h 11.3 km/h 26% 0 mm 652.00 W/m2
13:59 18.9 °C -0.6 °C 1022.6 hPa SE 14.5 km/h 14.5 km/h 27% 0 mm 643.00 W/m2
14:04 18.9 °C -0.6 °C 1022.6 hPa ESE 9.7 km/h 11.3 km/h 27% 0 mm 635.00 W/m2
14:09 18.9 °C -1.1 °C 1022.6 hPa South 29 km/h 12.9 km/h 26% 0 mm 621.00 W/m2
14:14 18.9 °C -1.1 °C 1022.6 hPa East 32.2 km/h 27.4 km/h 26% 0 mm 612.00 W/m2
14:19 18.9 °C -1.1 °C 1022.6 hPa South 11.3 km/h 32.2 km/h 26% 0 mm 599.00 W/m2
14:24 18.9 °C -1.1 °C 1022.6 hPa South 25.7 km/h 16.1 km/h 26% 0 mm 587.00 W/m2
14:29 18.9 °C -0.6 °C 1022.6 hPa SSE 25.7 km/h 25.7 km/h 27% 0 mm 573.00 W/m2
14:34 18.9 °C -0.6 °C 1022.6 hPa South 14.5 km/h 25.7 km/h 27% 0 mm 564.00 W/m2
14:39 18.9 °C -1.1 °C 1022.6 hPa SE 14.5 km/h 14.5 km/h 26% 0 mm 548.00 W/m2
14:44 18.9 °C -0.6 °C 1022.6 hPa South 17.7 km/h 14.5 km/h 27% 0 mm 536.00 W/m2
14:49 18.9 °C -1.7 °C 1022.6 hPa ESE 25.7 km/h 14.5 km/h 25% 0 mm 522.00 W/m2
14:54 18.9 °C -2.2 °C 1022.6 hPa ESE 19.3 km/h 25.7 km/h 24% 0 mm 512.00 W/m2
14:59 18.9 °C -2.2 °C 1022.6 hPa ESE 20.9 km/h 20.9 km/h 24% 0 mm 497.00 W/m2
15:04 18.9 °C -1.7 °C 1022.6 hPa SE 11.3 km/h 20.9 km/h 25% 0 mm 485.00 W/m2
15:09 18.9 °C -0.6 °C 1022.6 hPa SW 11.3 km/h 11.3 km/h 27% 0 mm 475.00 W/m2
15:14 18.9 °C -1.1 °C 1022.6 hPa ESE 14.5 km/h 11.3 km/h 26% 0 mm 461.00 W/m2
15:19 18.9 °C -0.6 °C 1022.6 hPa SE 11.3 km/h 14.5 km/h 27% 0 mm 448.00 W/m2
15:24 18.9 °C -1.1 °C 1022.6 hPa ESE 32.2 km/h 14.5 km/h 26% 0 mm 439.00 W/m2
15:29 18.9 °C -1.7 °C 1022.6 hPa North 14.5 km/h 32.2 km/h 25% 0 mm 432.00 W/m2
15:34 18.9 °C -1.7 °C 1022.6 hPa SE 17.7 km/h 14.5 km/h 25% 0 mm 415.00 W/m2
15:39 18.9 °C -2.2 °C 1022.6 hPa SSE 16.1 km/h 16.1 km/h 24% 0 mm 313.00 W/m2
15:44 18.3 °C -1.1 °C 1022.6 hPa NNE 25.7 km/h 11.3 km/h 27% 0 mm 308.00 W/m2
15:49 18.3 °C -1.1 °C 1022.6 hPa East 17.7 km/h 25.7 km/h 26% 0 mm 352.00 W/m2
15:54 18.3 °C -2.2 °C 1022.6 hPa East 14.5 km/h 16.1 km/h 25% 0 mm 348.00 W/m2
15:59 18.3 °C -1.7 °C 1022.6 hPa East 9.7 km/h 14.5 km/h 26% 0 mm 297.00 W/m2
16:04 18.3 °C -1.1 °C 1022.6 hPa NW 6.4 km/h 9.7 km/h 27% 0 mm 230.00 W/m2
16:09 18.3 °C -4.4 °C 1022.6 hPa East 17.7 km/h 14.5 km/h 21% 0 mm 155.00 W/m2
16:14 18.3 °C -6.1 °C 1022.6 hPa ENE 14.5 km/h 16.1 km/h 18% 0 mm 193.00 W/m2
16:19 18.9 °C -8.9 °C 1022.6 hPa SSW 6.4 km/h 14.5 km/h 15% 0 mm 250.00 W/m2
16:24 18.9 °C -9.4 °C 1022.6 hPa ENE 9.7 km/h 4.8 km/h 14% 0 mm 246.00 W/m2
16:29 18.9 °C -10.6 °C 1022.6 hPa SSW 14.5 km/h 11.3 km/h 13% 0 mm 230.00 W/m2
16:34 18.9 °C -12.2 °C 1022.6 hPa East 17.7 km/h 14.5 km/h 11% 0 mm 218.00 W/m2
16:39 18.9 °C -11.7 °C 1022.6 hPa North 14.5 km/h 16.1 km/h 12% 0 mm 37.00 W/m2
16:44 18.3 °C -11.7 °C 1022.6 hPa SE 9.7 km/h 14.5 km/h 12% 0 mm 44.00 W/m2
16:49 18.3 °C -12.8 °C 1022.6 hPa ESE 9.7 km/h 9.7 km/h 11% 0 mm 33.00 W/m2
16:54 18.3 °C -11.1 °C 1022.6 hPa SSW 14.5 km/h 9.7 km/h 13% 0 mm 116.00 W/m2
16:59 17.8 °C -10 °C 1022.6 hPa South 6.4 km/h 14.5 km/h 14% 0 mm 114.00 W/m2
17:04 17.8 °C -11.1 °C 1022.6 hPa WSW 3.2 km/h 3.2 km/h 13% 0 mm 56.00 W/m2
17:09 17.2 °C -11.7 °C 1022.6 hPa East 17.7 km/h 12.9 km/h 13% 0 mm 21.00 W/m2
17:14 16.7 °C -11.1 °C 1022.6 hPa SE 11.3 km/h 16.1 km/h 14% 0 mm 19.00 W/m2
17:19 16.7 °C -11.1 °C 1022.6 hPa NNW 3.2 km/h 4.8 km/h 14% 0 mm 18.00 W/m2
17:24 16.1 °C -11.1 °C 1026 hPa ENE 6.4 km/h 3.2 km/h 14% 0 mm 14.00 W/m2
17:29 16.1 °C -10 °C 1026 hPa ENE 11.3 km/h 4.8 km/h 16% 0 mm 12.00 W/m2
17:34 15.6 °C -10.6 °C 1026 hPa ENE 11.3 km/h 11.3 km/h 15% 0 mm 11.00 W/m2
17:39 15.6 °C -10.6 °C 1026 hPa WSW 3.2 km/h 4.8 km/h 16% 0 mm 9.00 W/m2
17:44 15 °C -9.4 °C 1026 hPa WSW 3.2 km/h 3.2 km/h 18% 0 mm 7.00 W/m2
17:49 15 °C -7.2 °C 1026 hPa West 3.2 km/h 3.2 km/h 21% 0 mm 5.00 W/m2
17:54 14.4 °C -7.2 °C 1026 hPa WSW 3.2 km/h   22% 0 mm 0.00 W/m2
17:59 14.4 °C -8.3 °C 1026 hPa SE 6.4 km/h 3.2 km/h 20% 0 mm 0.00 W/m2
18:04 13.9 °C -8.9 °C 1026 hPa ESE 6.4 km/h 4.8 km/h 20% 0 mm 0.00 W/m2
18:09 13.9 °C -10 °C 1026 hPa SSE 6.4 km/h 4.8 km/h 18% 0 mm 0.00 W/m2
18:14 13.3 °C -9.4 °C 1026 hPa SSE 3.2 km/h 4.8 km/h 20% 0 mm 0.00 W/m2
18:19 13.3 °C -9.4 °C 1026 hPa ESE 3.2 km/h   20% 0 mm 0.00 W/m2
18:24 12.8 °C -8.9 °C 1026 hPa ENE 3.2 km/h 3.2 km/h 21% 0 mm 0.00 W/m2
18:29 12.8 °C -8.9 °C 1026 hPa ENE 9.7 km/h 4.8 km/h 22% 0 mm 0.00 W/m2
18:34 12.2 °C -8.9 °C 1026 hPa SSE 6.4 km/h 9.7 km/h 22% 0 mm 0.00 W/m2
18:39 12.2 °C -7.8 °C 1026 hPa South 6.4 km/h 4.8 km/h 24% 0 mm 0.00 W/m2
18:44 12.2 °C -7.8 °C 1026 hPa NNW 3.2 km/h 4.8 km/h 25% 0 mm 0.00 W/m2
18:49 11.7 °C -7.8 °C 1026 hPa North 6.4 km/h 3.2 km/h 25% 0 mm 0.00 W/m2
18:54 11.7 °C -7.2 °C 1026 hPa East 3.2 km/h 4.8 km/h 27% 0 mm 0.00 W/m2
18:59 11.1 °C -7.2 °C 1026 hPa East 3.2 km/h 3.2 km/h 27% 0 mm 0.00 W/m2
19:04 11.1 °C -9.4 °C 1026 hPa SE 6.4 km/h 3.2 km/h 23% 0 mm 0.00 W/m2
19:09 10.6 °C -10 °C 1026 hPa ENE 11.3 km/h 4.8 km/h 22% 0 mm 0.00 W/m2
19:14 10.6 °C -10.6 °C 1026 hPa ENE 9.7 km/h 11.3 km/h 22% 0 mm 0.00 W/m2
19:19 10.6 °C -10.6 °C 1026 hPa SSE 9.7 km/h 4.8 km/h 22% 0 mm 0.00 W/m2
19:24 10.6 °C -10 °C 1026 hPa ESE 11.3 km/h 9.7 km/h 23% 0 mm 0.00 W/m2
19:29 10.6 °C -10.6 °C 1026 hPa South 6.4 km/h 11.3 km/h 22% 0 mm 0.00 W/m2
19:34 10 °C -10 °C 1026 hPa North 11.3 km/h 4.8 km/h 23% 0 mm 0.00 W/m2
19:39 10 °C -10.6 °C 1026 hPa NE 11.3 km/h 11.3 km/h 22% 0 mm 0.00 W/m2
19:44 10 °C -10 °C 1026 hPa NNE 8 km/h 11.3 km/h 23% 0 mm 0.00 W/m2
19:49 10 °C -10 °C 1026 hPa NE 11.3 km/h 9.7 km/h 23% 0 mm 0.00 W/m2
19:54 10 °C -11.1 °C 1026 hPa SW 17.7 km/h 16.1 km/h 22% 0 mm 0.00 W/m2
19:59 10 °C -11.7 °C 1026 hPa ENE 9.7 km/h 11.3 km/h 21% 0 mm 0.00 W/m2
20:03 10 °C -11.7 °C 1026 hPa East 9.7 km/h 9.7 km/h 21% 0 mm 0.00 W/m2
20:09 9.4 °C -11.1 °C 1026 hPa South 20.9 km/h 9.7 km/h 22% 0 mm 0.00 W/m2
20:14 9.4 °C -11.1 °C 1026 hPa NNW 6.4 km/h 20.9 km/h 22% 0 mm 0.00 W/m2
20:19 9.4 °C -11.1 °C 1026 hPa East 20.9 km/h 8 km/h 22% 0 mm 0.00 W/m2
20:24 9.4 °C -11.1 °C 1026 hPa ESE 6.4 km/h 20.9 km/h 22% 0 mm 0.00 W/m2
20:29 9.4 °C -11.7 °C 1026 hPa NNE 6.4 km/h 4.8 km/h 21% 0 mm 0.00 W/m2
20:34 9.4 °C -10.6 °C 1026 hPa ENE 9.7 km/h 4.8 km/h 23% 0 mm 0.00 W/m2
20:39 9.4 °C -10.6 °C 1026 hPa SSE 6.4 km/h 9.7 km/h 24% 0 mm 0.00 W/m2
20:44 9.4 °C -8.3 °C 1026 hPa Calm   4.8 km/h 28% 0 mm 0.00 W/m2
20:49 9.4 °C -7.8 °C 1026 hPa SE 3.2 km/h   30% 0 mm 0.00 W/m2
20:54 8.9 °C -7.8 °C 1026 hPa SE 3.2 km/h 3.2 km/h 30% 0 mm 0.00 W/m2
20:59 8.9 °C -8.3 °C 1026 hPa ESE 3.2 km/h   29% 0 mm 0.00 W/m2
21:04 8.9 °C -7.2 °C 1026 hPa Calm   3.2 km/h 32% 0 mm 0.00 W/m2
21:09 8.3 °C -5.6 °C 1026 hPa Calm     37% 0 mm 0.00 W/m2
21:14 8.3 °C -6.1 °C 1026 hPa Calm     36% 0 mm 0.00 W/m2
21:19 7.8 °C -6.1 °C 1026 hPa Calm     36% 0 mm 0.00 W/m2
21:24 7.8 °C -5.6 °C 1026 hPa Calm     40% 0 mm 0.00 W/m2
21:29 7.2 °C -5 °C 1026 hPa Calm     41% 0 mm 0.00 W/m2
21:34 7.2 °C -5.6 °C 1026 hPa Calm     41% 0 mm 0.00 W/m2
21:39 6.7 °C -5.6 °C 1026 hPa Calm     41% 0 mm 0.00 W/m2
21:44 6.7 °C -6.1 °C 1026 hPa Calm     41% 0 mm 0.00 W/m2
21:49 6.1 °C -6.1 °C 1026 hPa Calm     41% 0 mm 0.00 W/m2
21:54 6.1 °C -6.1 °C 1026 hPa Calm     41% 0 mm 0.00 W/m2
21:59 5.6 °C -6.1 °C 1026 hPa Calm     43% 0 mm 0.00 W/m2
22:04 5.6 °C -6.1 °C 1026 hPa Calm     43% 0 mm 0.00 W/m2
22:09 5 °C -6.1 °C 1026 hPa Calm     43% 0 mm 0.00 W/m2
22:14 5 °C -6.7 °C 1026 hPa Calm     44% 0 mm 0.00 W/m2
22:19 4.4 °C -6.7 °C 1026 hPa Calm     45% 0 mm 0.00 W/m2
22:24 4.4 °C -6.7 °C 1026 hPa Calm     45% 0 mm 0.00 W/m2
22:29 4.4 °C -6.1 °C 1026 hPa Calm     46% 0 mm 0.00 W/m2
22:34 3.9 °C -6.1 °C 1026 hPa Calm     47% 0 mm 0.00 W/m2
22:39 3.9 °C -6.7 °C 1026 hPa Calm     46% 0 mm 0.00 W/m2
22:44 3.9 °C -6.7 °C 1026 hPa Calm     47% 0 mm 0.00 W/m2
22:49 3.9 °C -6.7 °C 1026 hPa Calm     48% 0 mm 0.00 W/m2
22:54 3.3 °C -6.1 °C 1026 hPa Calm     50% 0 mm 0.00 W/m2
22:59 3.3 °C -6.1 °C 1026 hPa Calm     50% 0 mm 0.00 W/m2
23:04 3.3 °C -6.1 °C 1026 hPa Calm     50% 0 mm 0.00 W/m2
23:09 3.3 °C -6.1 °C 1026 hPa Calm     50% 0 mm 0.00 W/m2
23:14 3.3 °C -6.1 °C 1026 hPa Calm     50% 0 mm 0.00 W/m2
23:19 2.8 °C -6.7 °C 1026 hPa Calm     50% 0 mm 0.00 W/m2
23:23 2.8 °C -6.7 °C 1026 hPa Calm     50% 0 mm 0.00 W/m2
23:29 2.8 °C -6.7 °C 1026 hPa Calm     49% 0 mm 0.00 W/m2
23:34 2.8 °C -6.7 °C 1026 hPa Calm     49% 0 mm 0.00 W/m2
23:39 2.8 °C -7.2 °C 1026 hPa Calm     49% 0 mm 0.00 W/m2
23:44 2.8 °C -6.7 °C 1026 hPa Calm     50% 0 mm 0.00 W/m2
23:49 2.8 °C -6.7 °C 1026 hPa Calm     50% 0 mm 0.00 W/m2
23:54 2.8 °C -6.7 °C 1026 hPa Calm     50% 0 mm 0.00 W/m2
23:59 2.8 °C -6.7 °C 1026 hPa Calm     50% 0 mm 0.00 W/m2
El Dorado Weather
Compliments of Weather Underground - 4 mb